sensor_id;sensor_type;location;lat;lon;timestamp;P1;durP1;ratioP1;P2;durP2;ratioP2
72422;SDS011;71399;54.146;38.734;2024-01-30T00:00:13;20.02;;;7.63;;
72422;SDS011;71399;54.146;38.734;2024-01-30T00:02:40;19.58;;;8.00;;
72422;SDS011;71399;54.146;38.734;2024-01-30T00:05:06;18.85;;;7.22;;
72422;SDS011;71399;54.146;38.734;2024-01-30T00:07:33;14.38;;;6.43;;
72422;SDS011;71399;54.146;38.734;2024-01-30T00:09:59;18.92;;;7.93;;
72422;SDS011;71399;54.146;38.734;2024-01-30T00:12:25;17.52;;;7.50;;
72422;SDS011;71399;54.146;38.734;2024-01-30T00:14:52;17.80;;;6.47;;
72422;SDS011;71399;54.146;38.734;2024-01-30T00:17:18;15.20;;;6.40;;
72422;SDS011;71399;54.146;38.734;2024-01-30T00:19:46;20.05;;;6.88;;
72422;SDS011;71399;54.146;38.734;2024-01-30T00:22:12;13.25;;;6.35;;
72422;SDS011;71399;54.146;38.734;2024-01-30T00:24:39;23.00;;;6.90;;
72422;SDS011;71399;54.146;38.734;2024-01-30T00:27:05;22.70;;;7.68;;
72422;SDS011;71399;54.146;38.734;2024-01-30T00:29:32;16.63;;;7.03;;
72422;SDS011;71399;54.146;38.734;2024-01-30T00:31:59;16.55;;;6.88;;
72422;SDS011;71399;54.146;38.734;2024-01-30T00:34:26;17.27;;;6.63;;
72422;SDS011;71399;54.146;38.734;2024-01-30T00:36:52;15.48;;;6.30;;
72422;SDS011;71399;54.146;38.734;2024-01-30T00:39:18;14.80;;;6.03;;
72422;SDS011;71399;54.146;38.734;2024-01-30T00:41:45;15.68;;;6.47;;
72422;SDS011;71399;54.146;38.734;2024-01-30T00:44:11;16.88;;;5.75;;
72422;SDS011;71399;54.146;38.734;2024-01-30T00:46:37;14.90;;;5.63;;
72422;SDS011;71399;54.146;38.734;2024-01-30T00:49:04;14.57;;;6.30;;
72422;SDS011;71399;54.146;38.734;2024-01-30T00:51:30;13.50;;;5.53;;
72422;SDS011;71399;54.146;38.734;2024-01-30T00:53:56;11.57;;;5.05;;
72422;SDS011;71399;54.146;38.734;2024-01-30T00:56:23;11.52;;;4.63;;
72422;SDS011;71399;54.146;38.734;2024-01-30T00:58:49;14.75;;;6.05;;
72422;SDS011;71399;54.146;38.734;2024-01-30T01:01:16;10.55;;;5.15;;
72422;SDS011;71399;54.146;38.734;2024-01-30T01:03:42;11.65;;;5.35;;
72422;SDS011;71399;54.146;38.734;2024-01-30T01:06:09;12.13;;;5.47;;
72422;SDS011;71399;54.146;38.734;2024-01-30T01:08:38;10.30;;;4.78;;
72422;SDS011;71399;54.146;38.734;2024-01-30T01:11:04;13.57;;;5.80;;
72422;SDS011;71399;54.146;38.734;2024-01-30T01:13:30;13.35;;;5.88;;
72422;SDS011;71399;54.146;38.734;2024-01-30T01:15:56;13.65;;;5.82;;
72422;SDS011;71399;54.146;38.734;2024-01-30T01:18:23;13.57;;;5.40;;
72422;SDS011;71399;54.146;38.734;2024-01-30T01:20:49;14.90;;;5.40;;
72422;SDS011;71399;54.146;38.734;2024-01-30T01:23:15;12.85;;;6.47;;
72422;SDS011;71399;54.146;38.734;2024-01-30T01:25:41;11.75;;;5.55;;
72422;SDS011;71399;54.146;38.734;2024-01-30T01:28:07;15.82;;;6.68;;
72422;SDS011;71399;54.146;38.734;2024-01-30T01:30:34;14.85;;;7.07;;
72422;SDS011;71399;54.146;38.734;2024-01-30T01:33:01;14.73;;;6.50;;
72422;SDS011;71399;54.146;38.734;2024-01-30T01:35:28;15.18;;;6.90;;
72422;SDS011;71399;54.146;38.734;2024-01-30T01:37:54;16.88;;;6.93;;
72422;SDS011;71399;54.146;38.734;2024-01-30T01:40:22;12.90;;;6.18;;
72422;SDS011;71399;54.146;38.734;2024-01-30T01:42:52;14.30;;;6.03;;
72422;SDS011;71399;54.146;38.734;2024-01-30T01:45:20;17.90;;;7.20;;
72422;SDS011;71399;54.146;38.734;2024-01-30T01:47:48;14.85;;;6.97;;
72422;SDS011;71399;54.146;38.734;2024-01-30T01:50:17;14.48;;;6.45;;
72422;SDS011;71399;54.146;38.734;2024-01-30T01:52:48;16.73;;;6.97;;
72422;SDS011;71399;54.146;38.734;2024-01-30T01:55:17;17.25;;;6.43;;
72422;SDS011;71399;54.146;38.734;2024-01-30T01:57:47;15.90;;;6.28;;
72422;SDS011;71399;54.146;38.734;2024-01-30T02:00:14;10.77;;;6.00;;
72422;SDS011;71399;54.146;38.734;2024-01-30T02:02:41;15.00;;;6.22;;
72422;SDS011;71399;54.146;38.734;2024-01-30T02:05:09;15.50;;;6.40;;
72422;SDS011;71399;54.146;38.734;2024-01-30T02:07:35;14.00;;;6.20;;
72422;SDS011;71399;54.146;38.734;2024-01-30T02:10:02;17.15;;;6.28;;
72422;SDS011;71399;54.146;38.734;2024-01-30T02:12:29;15.23;;;7.50;;
72422;SDS011;71399;54.146;38.734;2024-01-30T02:14:56;20.13;;;7.70;;
72422;SDS011;71399;54.146;38.734;2024-01-30T02:17:23;15.38;;;7.35;;
72422;SDS011;71399;54.146;38.734;2024-01-30T02:19:51;21.98;;;9.02;;
72422;SDS011;71399;54.146;38.734;2024-01-30T02:22:17;18.00;;;8.65;;
72422;SDS011;71399;54.146;38.734;2024-01-30T02:24:45;26.83;;;10.05;;
72422;SDS011;71399;54.146;38.734;2024-01-30T02:27:12;24.13;;;10.02;;
72422;SDS011;71399;54.146;38.734;2024-01-30T02:29:38;31.95;;;10.88;;
72422;SDS011;71399;54.146;38.734;2024-01-30T02:32:04;30.10;;;12.23;;
72422;SDS011;71399;54.146;38.734;2024-01-30T02:34:32;33.75;;;12.07;;
72422;SDS011;71399;54.146;38.734;2024-01-30T02:36:58;36.47;;;13.80;;
72422;SDS011;71399;54.146;38.734;2024-01-30T02:39:24;53.03;;;18.17;;
72422;SDS011;71399;54.146;38.734;2024-01-30T02:41:51;56.42;;;18.42;;
72422;SDS011;71399;54.146;38.734;2024-01-30T02:44:17;57.15;;;20.98;;
72422;SDS011;71399;54.146;38.734;2024-01-30T02:46:43;63.42;;;22.77;;
72422;SDS011;71399;54.146;38.734;2024-01-30T02:49:09;64.03;;;24.00;;
72422;SDS011;71399;54.146;38.734;2024-01-30T02:51:36;69.03;;;26.27;;
72422;SDS011;71399;54.146;38.734;2024-01-30T02:54:03;76.38;;;26.85;;
72422;SDS011;71399;54.146;38.734;2024-01-30T02:56:29;64.70;;;24.00;;
72422;SDS011;71399;54.146;38.734;2024-01-30T02:58:56;59.28;;;22.45;;
72422;SDS011;71399;54.146;38.734;2024-01-30T03:01:22;49.30;;;18.55;;
72422;SDS011;71399;54.146;38.734;2024-01-30T03:03:50;44.15;;;16.58;;
72422;SDS011;71399;54.146;38.734;2024-01-30T03:06:16;35.45;;;15.25;;
72422;SDS011;71399;54.146;38.734;2024-01-30T03:08:43;38.30;;;14.90;;
72422;SDS011;71399;54.146;38.734;2024-01-30T03:11:09;32.15;;;13.68;;
72422;SDS011;71399;54.146;38.734;2024-01-30T03:13:35;31.73;;;11.95;;
72422;SDS011;71399;54.146;38.734;2024-01-30T03:16:02;23.45;;;10.45;;
72422;SDS011;71399;54.146;38.734;2024-01-30T03:18:28;19.67;;;9.18;;
72422;SDS011;71399;54.146;38.734;2024-01-30T03:20:54;18.65;;;7.90;;
72422;SDS011;71399;54.146;38.734;2024-01-30T03:23:21;15.50;;;6.78;;
72422;SDS011;71399;54.146;38.734;2024-01-30T03:25:47;17.67;;;7.07;;
72422;SDS011;71399;54.146;38.734;2024-01-30T03:28:13;14.80;;;6.65;;
72422;SDS011;71399;54.146;38.734;2024-01-30T03:30:40;16.02;;;6.80;;
72422;SDS011;71399;54.146;38.734;2024-01-30T03:33:06;16.95;;;7.13;;
72422;SDS011;71399;54.146;38.734;2024-01-30T03:35:32;17.40;;;6.72;;
72422;SDS011;71399;54.146;38.734;2024-01-30T03:37:58;18.63;;;6.70;;
72422;SDS011;71399;54.146;38.734;2024-01-30T03:40:25;12.25;;;5.70;;
72422;SDS011;71399;54.146;38.734;2024-01-30T03:42:51;13.98;;;6.40;;
72422;SDS011;71399;54.146;38.734;2024-01-30T03:45:17;18.23;;;5.78;;
72422;SDS011;71399;54.146;38.734;2024-01-30T03:47:45;15.15;;;6.07;;
72422;SDS011;71399;54.146;38.734;2024-01-30T03:50:11;14.10;;;5.72;;
72422;SDS011;71399;54.146;38.734;2024-01-30T03:52:37;14.85;;;5.65;;
72422;SDS011;71399;54.146;38.734;2024-01-30T03:55:05;11.40;;;5.18;;
72422;SDS011;71399;54.146;38.734;2024-01-30T03:57:31;14.02;;;5.72;;
72422;SDS011;71399;54.146;38.734;2024-01-30T03:59:57;14.57;;;5.55;;
72422;SDS011;71399;54.146;38.734;2024-01-30T04:02:24;12.60;;;5.57;;
72422;SDS011;71399;54.146;38.734;2024-01-30T04:04:50;13.27;;;5.18;;
72422;SDS011;71399;54.146;38.734;2024-01-30T04:07:17;13.48;;;5.57;;
72422;SDS011;71399;54.146;38.734;2024-01-30T04:09:43;11.35;;;4.55;;
72422;SDS011;71399;54.146;38.734;2024-01-30T04:12:09;10.85;;;4.72;;
72422;SDS011;71399;54.146;38.734;2024-01-30T04:14:37;12.30;;;4.97;;
72422;SDS011;71399;54.146;38.734;2024-01-30T04:17:06;12.55;;;5.45;;
72422;SDS011;71399;54.146;38.734;2024-01-30T04:19:32;16.05;;;5.47;;
72422;SDS011;71399;54.146;38.734;2024-01-30T04:21:58;12.85;;;5.03;;
72422;SDS011;71399;54.146;38.734;2024-01-30T04:24:24;14.52;;;4.97;;
72422;SDS011;71399;54.146;38.734;2024-01-30T04:26:51;14.77;;;5.55;;
72422;SDS011;71399;54.146;38.734;2024-01-30T04:29:17;12.18;;;5.72;;
72422;SDS011;71399;54.146;38.734;2024-01-30T04:31:43;13.13;;;5.55;;
72422;SDS011;71399;54.146;38.734;2024-01-30T04:34:09;13.40;;;5.00;;
72422;SDS011;71399;54.146;38.734;2024-01-30T04:36:36;12.27;;;5.45;;
72422;SDS011;71399;54.146;38.734;2024-01-30T04:39:02;17.02;;;5.53;;
72422;SDS011;71399;54.146;38.734;2024-01-30T04:41:29;12.85;;;5.40;;
72422;SDS011;71399;54.146;38.734;2024-01-30T04:43:57;16.73;;;6.40;;
72422;SDS011;71399;54.146;38.734;2024-01-30T04:46:23;16.10;;;5.63;;
72422;SDS011;71399;54.146;38.734;2024-01-30T04:48:49;13.18;;;5.30;;
72422;SDS011;71399;54.146;38.734;2024-01-30T04:51:16;13.75;;;5.07;;
72422;SDS011;71399;54.146;38.734;2024-01-30T04:53:42;12.68;;;4.85;;
72422;SDS011;71399;54.146;38.734;2024-01-30T04:56:08;14.35;;;5.72;;
72422;SDS011;71399;54.146;38.734;2024-01-30T04:58:35;13.70;;;5.45;;
72422;SDS011;71399;54.146;38.734;2024-01-30T05:01:02;14.35;;;5.65;;
72422;SDS011;71399;54.146;38.734;2024-01-30T05:03:28;14.18;;;5.75;;
72422;SDS011;71399;54.146;38.734;2024-01-30T05:05:54;14.48;;;5.53;;
72422;SDS011;71399;54.146;38.734;2024-01-30T05:08:20;16.35;;;6.22;;
72422;SDS011;71399;54.146;38.734;2024-01-30T05:10:47;15.40;;;6.88;;
72422;SDS011;71399;54.146;38.734;2024-01-30T05:13:13;16.27;;;6.85;;
72422;SDS011;71399;54.146;38.734;2024-01-30T05:15:39;18.80;;;7.47;;
72422;SDS011;71399;54.146;38.734;2024-01-30T05:18:06;17.02;;;7.05;;
72422;SDS011;71399;54.146;38.734;2024-01-30T05:20:32;15.90;;;7.15;;
72422;SDS011;71399;54.146;38.734;2024-01-30T05:22:58;19.15;;;7.43;;
72422;SDS011;71399;54.146;38.734;2024-01-30T05:25:25;18.58;;;7.22;;
72422;SDS011;71399;54.146;38.734;2024-01-30T05:27:51;16.95;;;7.40;;
72422;SDS011;71399;54.146;38.734;2024-01-30T05:30:17;15.10;;;5.63;;
72422;SDS011;71399;54.146;38.734;2024-01-30T05:32:43;17.42;;;6.32;;
72422;SDS011;71399;54.146;38.734;2024-01-30T05:35:09;19.70;;;7.20;;
72422;SDS011;71399;54.146;38.734;2024-01-30T05:37:36;13.80;;;5.10;;
72422;SDS011;71399;54.146;38.734;2024-01-30T05:40:02;19.10;;;6.38;;
72422;SDS011;71399;54.146;38.734;2024-01-30T05:42:30;14.95;;;6.80;;
72422;SDS011;71399;54.146;38.734;2024-01-30T05:44:56;14.85;;;5.68;;
72422;SDS011;71399;54.146;38.734;2024-01-30T05:47:23;14.18;;;6.13;;
72422;SDS011;71399;54.146;38.734;2024-01-30T05:49:49;16.45;;;5.55;;
72422;SDS011;71399;54.146;38.734;2024-01-30T05:52:15;14.75;;;6.60;;
72422;SDS011;71399;54.146;38.734;2024-01-30T05:54:42;18.75;;;6.50;;
72422;SDS011;71399;54.146;38.734;2024-01-30T05:57:08;17.02;;;6.35;;
72422;SDS011;71399;54.146;38.734;2024-01-30T05:59:34;14.23;;;5.65;;
72422;SDS011;71399;54.146;38.734;2024-01-30T06:02:02;14.40;;;6.35;;
72422;SDS011;71399;54.146;38.734;2024-01-30T06:04:28;16.23;;;6.07;;
72422;SDS011;71399;54.146;38.734;2024-01-30T06:06:54;15.77;;;5.95;;
72422;SDS011;71399;54.146;38.734;2024-01-30T06:09:21;14.15;;;5.63;;
72422;SDS011;71399;54.146;38.734;2024-01-30T06:11:47;15.20;;;5.18;;
72422;SDS011;71399;54.146;38.734;2024-01-30T06:14:13;18.70;;;6.72;;
72422;SDS011;71399;54.146;38.734;2024-01-30T06:16:39;12.32;;;5.95;;
72422;SDS011;71399;54.146;38.734;2024-01-30T06:19:06;14.75;;;5.65;;
72422;SDS011;71399;54.146;38.734;2024-01-30T06:21:32;11.95;;;5.18;;
72422;SDS011;71399;54.146;38.734;2024-01-30T06:24:02;15.95;;;6.68;;
72422;SDS011;71399;54.146;38.734;2024-01-30T06:26:28;18.10;;;6.38;;
72422;SDS011;71399;54.146;38.734;2024-01-30T06:28:55;13.43;;;5.70;;
72422;SDS011;71399;54.146;38.734;2024-01-30T06:31:21;16.33;;;6.25;;
72422;SDS011;71399;54.146;38.734;2024-01-30T06:33:47;18.95;;;6.15;;
72422;SDS011;71399;54.146;38.734;2024-01-30T06:36:14;13.10;;;5.88;;
72422;SDS011;71399;54.146;38.734;2024-01-30T06:38:40;13.18;;;5.38;;
72422;SDS011;71399;54.146;38.734;2024-01-30T06:41:07;17.30;;;6.75;;
72422;SDS011;71399;54.146;38.734;2024-01-30T06:43:33;13.15;;;6.28;;
72422;SDS011;71399;54.146;38.734;2024-01-30T06:45:59;13.07;;;6.45;;
72422;SDS011;71399;54.146;38.734;2024-01-30T06:48:25;14.00;;;5.93;;
72422;SDS011;71399;54.146;38.734;2024-01-30T06:50:55;18.40;;;6.75;;
72422;SDS011;71399;54.146;38.734;2024-01-30T06:53:23;16.60;;;6.18;;
72422;SDS011;71399;54.146;38.734;2024-01-30T06:55:51;18.55;;;6.95;;
72422;SDS011;71399;54.146;38.734;2024-01-30T06:58:17;12.07;;;5.65;;
72422;SDS011;71399;54.146;38.734;2024-01-30T07:00:44;16.17;;;6.63;;
72422;SDS011;71399;54.146;38.734;2024-01-30T07:03:10;14.73;;;6.00;;
72422;SDS011;71399;54.146;38.734;2024-01-30T07:05:36;13.68;;;6.65;;
72422;SDS011;71399;54.146;38.734;2024-01-30T07:08:03;14.45;;;6.05;;
72422;SDS011;71399;54.146;38.734;2024-01-30T07:10:29;17.20;;;6.97;;
72422;SDS011;71399;54.146;38.734;2024-01-30T07:12:57;16.45;;;5.68;;
72422;SDS011;71399;54.146;38.734;2024-01-30T07:15:24;20.50;;;6.43;;
72422;SDS011;71399;54.146;38.734;2024-01-30T07:17:50;18.58;;;6.53;;
72422;SDS011;71399;54.146;38.734;2024-01-30T07:20:16;11.68;;;5.70;;
72422;SDS011;71399;54.146;38.734;2024-01-30T07:22:45;16.02;;;6.97;;
72422;SDS011;71399;54.146;38.734;2024-01-30T07:25:11;20.20;;;7.30;;
72422;SDS011;71399;54.146;38.734;2024-01-30T07:27:38;20.27;;;8.38;;
72422;SDS011;71399;54.146;38.734;2024-01-30T07:30:04;16.45;;;6.95;;
72422;SDS011;71399;54.146;38.734;2024-01-30T07:32:31;16.95;;;7.55;;
72422;SDS011;71399;54.146;38.734;2024-01-30T07:34:57;17.80;;;6.95;;
72422;SDS011;71399;54.146;38.734;2024-01-30T07:37:24;19.33;;;7.75;;
72422;SDS011;71399;54.146;38.734;2024-01-30T07:39:50;18.85;;;7.18;;
72422;SDS011;71399;54.146;38.734;2024-01-30T07:42:16;14.82;;;6.70;;
72422;SDS011;71399;54.146;38.734;2024-01-30T07:44:43;17.30;;;6.97;;
72422;SDS011;71399;54.146;38.734;2024-01-30T07:47:09;15.40;;;6.85;;
72422;SDS011;71399;54.146;38.734;2024-01-30T07:49:36;14.85;;;6.75;;
72422;SDS011;71399;54.146;38.734;2024-01-30T07:52:03;16.50;;;7.13;;
72422;SDS011;71399;54.146;38.734;2024-01-30T07:54:31;17.17;;;7.13;;
72422;SDS011;71399;54.146;38.734;2024-01-30T07:57:00;15.77;;;6.80;;
72422;SDS011;71399;54.146;38.734;2024-01-30T07:59:26;19.67;;;7.72;;
72422;SDS011;71399;54.146;38.734;2024-01-30T08:01:53;17.40;;;6.72;;
72422;SDS011;71399;54.146;38.734;2024-01-30T08:04:19;16.95;;;7.35;;
72422;SDS011;71399;54.146;38.734;2024-01-30T08:06:45;14.30;;;5.78;;
72422;SDS011;71399;54.146;38.734;2024-01-30T08:09:11;15.43;;;6.95;;
72422;SDS011;71399;54.146;38.734;2024-01-30T08:11:37;14.05;;;6.07;;
72422;SDS011;71399;54.146;38.734;2024-01-30T08:14:04;18.45;;;7.55;;
72422;SDS011;71399;54.146;38.734;2024-01-30T08:16:30;14.98;;;6.47;;
72422;SDS011;71399;54.146;38.734;2024-01-30T08:18:56;15.23;;;6.65;;
72422;SDS011;71399;54.146;38.734;2024-01-30T08:21:23;15.18;;;7.10;;
72422;SDS011;71399;54.146;38.734;2024-01-30T08:23:50;18.60;;;7.53;;
72422;SDS011;71399;54.146;38.734;2024-01-30T08:26:16;16.85;;;7.05;;
72422;SDS011;71399;54.146;38.734;2024-01-30T08:28:42;16.90;;;6.43;;
72422;SDS011;71399;54.146;38.734;2024-01-30T08:31:10;18.38;;;7.05;;
72422;SDS011;71399;54.146;38.734;2024-01-30T08:33:37;18.42;;;7.03;;
72422;SDS011;71399;54.146;38.734;2024-01-30T08:36:04;16.60;;;7.60;;
72422;SDS011;71399;54.146;38.734;2024-01-30T08:38:30;15.77;;;5.72;;
72422;SDS011;71399;54.146;38.734;2024-01-30T08:40:56;16.67;;;7.70;;
72422;SDS011;71399;54.146;38.734;2024-01-30T08:43:22;18.38;;;7.53;;
72422;SDS011;71399;54.146;38.734;2024-01-30T08:45:49;15.85;;;6.35;;
72422;SDS011;71399;54.146;38.734;2024-01-30T08:48:15;16.40;;;6.65;;
72422;SDS011;71399;54.146;38.734;2024-01-30T08:50:41;25.00;;;8.75;;
72422;SDS011;71399;54.146;38.734;2024-01-30T08:53:07;16.23;;;7.45;;
72422;SDS011;71399;54.146;38.734;2024-01-30T08:55:33;18.75;;;7.13;;
72422;SDS011;71399;54.146;38.734;2024-01-30T08:58:00;14.98;;;6.78;;
72422;SDS011;71399;54.146;38.734;2024-01-30T09:00:26;21.45;;;7.45;;
72422;SDS011;71399;54.146;38.734;2024-01-30T09:02:53;15.98;;;6.57;;
72422;SDS011;71399;54.146;38.734;2024-01-30T09:05:19;17.70;;;7.30;;
72422;SDS011;71399;54.146;38.734;2024-01-30T09:07:45;15.70;;;6.45;;
72422;SDS011;71399;54.146;38.734;2024-01-30T09:10:12;16.20;;;6.93;;
72422;SDS011;71399;54.146;38.734;2024-01-30T09:12:38;16.52;;;7.03;;
72422;SDS011;71399;54.146;38.734;2024-01-30T09:15:04;17.15;;;7.10;;
72422;SDS011;71399;54.146;38.734;2024-01-30T09:17:31;15.90;;;6.90;;
72422;SDS011;71399;54.146;38.734;2024-01-30T09:19:58;17.75;;;6.45;;
72422;SDS011;71399;54.146;38.734;2024-01-30T09:22:25;16.25;;;6.85;;
72422;SDS011;71399;54.146;38.734;2024-01-30T09:24:51;15.55;;;6.82;;
72422;SDS011;71399;54.146;38.734;2024-01-30T09:27:18;14.43;;;7.03;;
72422;SDS011;71399;54.146;38.734;2024-01-30T09:29:44;16.02;;;7.35;;
72422;SDS011;71399;54.146;38.734;2024-01-30T09:32:11;17.83;;;7.47;;
72422;SDS011;71399;54.146;38.734;2024-01-30T09:34:37;13.27;;;5.75;;
72422;SDS011;71399;54.146;38.734;2024-01-30T09:37:05;14.70;;;6.85;;
72422;SDS011;71399;54.146;38.734;2024-01-30T09:39:31;16.85;;;7.80;;
72422;SDS011;71399;54.146;38.734;2024-01-30T09:45:17;14.73;;;6.85;;
72422;SDS011;71399;54.146;38.734;2024-01-30T09:47:45;15.27;;;7.72;;
72422;SDS011;71399;54.146;38.734;2024-01-30T09:50:12;18.00;;;7.80;;
72422;SDS011;71399;54.146;38.734;2024-01-30T09:52:40;17.13;;;6.95;;
72422;SDS011;71399;54.146;38.734;2024-01-30T09:55:11;13.60;;;6.75;;
72422;SDS011;71399;54.146;38.734;2024-01-30T09:57:38;14.60;;;6.88;;
72422;SDS011;71399;54.146;38.734;2024-01-30T10:00:05;17.45;;;7.05;;
72422;SDS011;71399;54.146;38.734;2024-01-30T10:02:40;15.45;;;7.53;;
72422;SDS011;71399;54.146;38.734;2024-01-30T10:05:07;14.27;;;6.95;;
72422;SDS011;71399;54.146;38.734;2024-01-30T10:07:35;14.80;;;6.60;;
72422;SDS011;71399;54.146;38.734;2024-01-30T10:10:01;14.73;;;7.00;;
72422;SDS011;71399;54.146;38.734;2024-01-30T10:12:29;17.50;;;7.55;;
72422;SDS011;71399;54.146;38.734;2024-01-30T10:14:56;13.32;;;6.57;;
72422;SDS011;71399;54.146;38.734;2024-01-30T10:17:24;14.02;;;7.35;;
72422;SDS011;71399;54.146;38.734;2024-01-30T10:19:52;14.65;;;6.15;;
72422;SDS011;71399;54.146;38.734;2024-01-30T10:22:19;15.85;;;6.88;;
72422;SDS011;71399;54.146;38.734;2024-01-30T10:24:45;16.13;;;6.63;;
72422;SDS011;71399;54.146;38.734;2024-01-30T10:27:12;16.50;;;6.45;;
72422;SDS011;71399;54.146;38.734;2024-01-30T10:29:38;14.63;;;6.60;;
72422;SDS011;71399;54.146;38.734;2024-01-30T10:32:05;15.27;;;7.10;;
72422;SDS011;71399;54.146;38.734;2024-01-30T10:34:31;16.92;;;7.72;;
72422;SDS011;71399;54.146;38.734;2024-01-30T10:37:05;16.73;;;7.35;;
72422;SDS011;71399;54.146;38.734;2024-01-30T10:39:44;14.47;;;7.20;;
72422;SDS011;71399;54.146;38.734;2024-01-30T10:42:18;14.52;;;6.65;;
72422;SDS011;71399;54.146;38.734;2024-01-30T10:45:00;14.10;;;6.70;;
72422;SDS011;71399;54.146;38.734;2024-01-30T10:47:36;14.27;;;6.43;;
72422;SDS011;71399;54.146;38.734;2024-01-30T10:50:03;16.73;;;7.00;;
72422;SDS011;71399;54.146;38.734;2024-01-30T10:52:29;13.52;;;6.03;;
72422;SDS011;71399;54.146;38.734;2024-01-30T10:54:58;14.52;;;6.20;;
72422;SDS011;71399;54.146;38.734;2024-01-30T10:57:25;12.82;;;5.85;;
72422;SDS011;71399;54.146;38.734;2024-01-30T10:59:53;17.60;;;7.53;;
72422;SDS011;71399;54.146;38.734;2024-01-30T11:02:23;15.65;;;6.80;;
72422;SDS011;71399;54.146;38.734;2024-01-30T11:04:54;14.57;;;6.65;;
72422;SDS011;71399;54.146;38.734;2024-01-30T11:07:26;14.32;;;7.72;;
72422;SDS011;71399;54.146;38.734;2024-01-30T11:09:59;15.82;;;6.75;;
72422;SDS011;71399;54.146;38.734;2024-01-30T11:12:33;15.63;;;7.07;;
72422;SDS011;71399;54.146;38.734;2024-01-30T11:15:13;14.77;;;6.78;;
72422;SDS011;71399;54.146;38.734;2024-01-30T11:20:29;15.27;;;7.15;;
72422;SDS011;71399;54.146;38.734;2024-01-30T11:23:02;12.95;;;6.22;;
72422;SDS011;71399;54.146;38.734;2024-01-30T11:25:32;16.45;;;6.90;;
72422;SDS011;71399;54.146;38.734;2024-01-30T11:28:00;15.63;;;7.45;;
72422;SDS011;71399;54.146;38.734;2024-01-30T11:30:32;16.02;;;7.05;;
72422;SDS011;71399;54.146;38.734;2024-01-30T11:33:03;15.80;;;6.72;;
72422;SDS011;71399;54.146;38.734;2024-01-30T11:35:31;14.98;;;6.65;;
72422;SDS011;71399;54.146;38.734;2024-01-30T11:37:59;16.63;;;6.38;;
72422;SDS011;71399;54.146;38.734;2024-01-30T11:40:27;15.38;;;7.60;;
72422;SDS011;71399;54.146;38.734;2024-01-30T11:42:56;16.63;;;6.85;;
72422;SDS011;71399;54.146;38.734;2024-01-30T11:45:24;15.93;;;6.60;;
72422;SDS011;71399;54.146;38.734;2024-01-30T11:47:50;17.98;;;7.22;;
72422;SDS011;71399;54.146;38.734;2024-01-30T11:50:16;14.38;;;7.05;;
72422;SDS011;71399;54.146;38.734;2024-01-30T11:52:43;16.20;;;7.80;;
72422;SDS011;71399;54.146;38.734;2024-01-30T11:55:09;17.92;;;7.28;;
72422;SDS011;71399;54.146;38.734;2024-01-30T11:57:36;15.15;;;7.25;;
72422;SDS011;71399;54.146;38.734;2024-01-30T12:00:05;17.17;;;6.75;;
72422;SDS011;71399;54.146;38.734;2024-01-30T12:02:40;12.40;;;6.18;;
72422;SDS011;71399;54.146;38.734;2024-01-30T12:05:06;16.48;;;6.45;;
72422;SDS011;71399;54.146;38.734;2024-01-30T12:07:33;13.45;;;6.63;;
72422;SDS011;71399;54.146;38.734;2024-01-30T12:09:59;16.70;;;7.43;;
72422;SDS011;71399;54.146;38.734;2024-01-30T12:12:26;16.38;;;7.30;;
72422;SDS011;71399;54.146;38.734;2024-01-30T12:14:54;13.98;;;7.28;;
72422;SDS011;71399;54.146;38.734;2024-01-30T12:17:28;13.07;;;6.63;;
72422;SDS011;71399;54.146;38.734;2024-01-30T12:20:31;15.23;;;6.63;;
72422;SDS011;71399;54.146;38.734;2024-01-30T12:22:51;12.25;;;6.47;;
72422;SDS011;71399;54.146;38.734;2024-01-30T12:25:20;15.20;;;7.25;;
72422;SDS011;71399;54.146;38.734;2024-01-30T12:27:49;15.50;;;7.30;;
72422;SDS011;71399;54.146;38.734;2024-01-30T12:30:17;15.02;;;6.93;;
72422;SDS011;71399;54.146;38.734;2024-01-30T12:32:46;14.18;;;6.90;;
72422;SDS011;71399;54.146;38.734;2024-01-30T12:35:14;15.52;;;7.60;;
72422;SDS011;71399;54.146;38.734;2024-01-30T12:37:45;14.77;;;7.15;;
72422;SDS011;71399;54.146;38.734;2024-01-30T12:40:13;18.48;;;7.32;;
72422;SDS011;71399;54.146;38.734;2024-01-30T12:42:41;16.35;;;7.63;;
72422;SDS011;71399;54.146;38.734;2024-01-30T12:45:08;16.20;;;6.82;;
72422;SDS011;71399;54.146;38.734;2024-01-30T12:47:35;17.00;;;7.32;;
72422;SDS011;71399;54.146;38.734;2024-01-30T12:50:03;14.95;;;7.18;;
72422;SDS011;71399;54.146;38.734;2024-01-30T12:52:29;17.13;;;7.57;;
72422;SDS011;71399;54.146;38.734;2024-01-30T12:54:56;15.13;;;7.18;;
72422;SDS011;71399;54.146;38.734;2024-01-30T12:57:22;16.15;;;7.10;;
72422;SDS011;71399;54.146;38.734;2024-01-30T12:59:48;18.55;;;7.75;;
72422;SDS011;71399;54.146;38.734;2024-01-30T13:02:15;16.45;;;7.20;;
72422;SDS011;71399;54.146;38.734;2024-01-30T13:04:42;14.30;;;7.07;;
72422;SDS011;71399;54.146;38.734;2024-01-30T13:07:09;18.30;;;7.47;;
72422;SDS011;71399;54.146;38.734;2024-01-30T13:09:35;14.95;;;7.47;;
72422;SDS011;71399;54.146;38.734;2024-01-30T13:12:02;17.70;;;7.35;;
72422;SDS011;71399;54.146;38.734;2024-01-30T13:14:28;16.95;;;7.13;;
72422;SDS011;71399;54.146;38.734;2024-01-30T13:16:55;18.00;;;7.50;;
72422;SDS011;71399;54.146;38.734;2024-01-30T13:19:21;14.27;;;7.07;;
72422;SDS011;71399;54.146;38.734;2024-01-30T13:21:47;20.85;;;8.05;;
72422;SDS011;71399;54.146;38.734;2024-01-30T13:24:14;18.10;;;8.05;;
72422;SDS011;71399;54.146;38.734;2024-01-30T13:26:41;18.05;;;6.90;;
72422;SDS011;71399;54.146;38.734;2024-01-30T13:29:09;15.70;;;6.82;;
72422;SDS011;71399;54.146;38.734;2024-01-30T13:31:35;18.98;;;7.25;;
72422;SDS011;71399;54.146;38.734;2024-01-30T13:34:02;18.08;;;7.93;;
72422;SDS011;71399;54.146;38.734;2024-01-30T13:36:28;17.90;;;8.02;;
72422;SDS011;71399;54.146;38.734;2024-01-30T13:38:54;17.23;;;7.68;;
72422;SDS011;71399;54.146;38.734;2024-01-30T13:41:21;18.52;;;8.23;;
72422;SDS011;71399;54.146;38.734;2024-01-30T13:43:48;19.42;;;8.02;;
72422;SDS011;71399;54.146;38.734;2024-01-30T13:46:15;18.63;;;7.60;;
72422;SDS011;71399;54.146;38.734;2024-01-30T13:48:41;20.98;;;8.48;;
72422;SDS011;71399;54.146;38.734;2024-01-30T13:51:07;17.13;;;8.02;;
72422;SDS011;71399;54.146;38.734;2024-01-30T13:53:34;13.82;;;6.45;;
72422;SDS011;71399;54.146;38.734;2024-01-30T13:56:00;16.48;;;6.85;;
72422;SDS011;71399;54.146;38.734;2024-01-30T13:58:26;21.60;;;8.18;;
72422;SDS011;71399;54.146;38.734;2024-01-30T14:00:53;17.20;;;7.60;;
72422;SDS011;71399;54.146;38.734;2024-01-30T14:03:19;17.95;;;7.47;;
72422;SDS011;71399;54.146;38.734;2024-01-30T14:05:45;19.13;;;7.10;;
72422;SDS011;71399;54.146;38.734;2024-01-30T14:08:12;20.60;;;8.43;;
72422;SDS011;71399;54.146;38.734;2024-01-30T14:10:38;17.83;;;7.72;;
72422;SDS011;71399;54.146;38.734;2024-01-30T14:13:04;16.88;;;7.75;;
72422;SDS011;71399;54.146;38.734;2024-01-30T14:15:30;21.10;;;8.38;;
72422;SDS011;71399;54.146;38.734;2024-01-30T14:17:57;23.52;;;8.68;;
72422;SDS011;71399;54.146;38.734;2024-01-30T14:20:23;23.00;;;9.05;;
72422;SDS011;71399;54.146;38.734;2024-01-30T14:22:49;21.17;;;8.75;;
72422;SDS011;71399;54.146;38.734;2024-01-30T14:25:16;18.27;;;8.32;;